Cherokee, North Carolina
Current Conditions -  °F | °C
As of 5:55 PM on Saturday 25 Oct 2014 (Local Time) from KGKT Reporting Station
Few Clouds Few Clouds  
Wind Chill: 70°   Ceiling: Unl
Heat Index: 70°   Visibility: 10mi
Dew Point: 46°   Wind: 3mph
Humidity: 43%   Direction: 240°WSW
Pressure: 30"   Gusts: NA
Location:  35.47°N, 83.31°W
Report Text: KGKT 252155Z AUTO 24003KT 10SM FEW042 21/08 A3000 RMK
Loading
Personal Weather Stations






























Interactive Weather Map New forecast layout! Learn more

10-Day Weather Forecast

Advertisements
Track Severe Weather on mobile